sensor_id;sensor_type;location;lat;lon;timestamp;P1;durP1;ratioP1;P2;durP2;ratioP2
13208;SDS011;6669;42.678;23.332;2022-07-03T00:02:10;10.20;;;7.40;;
13208;SDS011;6669;42.678;23.332;2022-07-03T00:04:38;8.10;;;7.38;;
13208;SDS011;6669;42.678;23.332;2022-07-03T00:07:06;8.07;;;7.38;;
13208;SDS011;6669;42.678;23.332;2022-07-03T00:09:35;7.43;;;6.82;;
13208;SDS011;6669;42.678;23.332;2022-07-03T00:12:04;7.80;;;7.00;;
13208;SDS011;6669;42.678;23.332;2022-07-03T00:14:34;6.80;;;6.22;;
13208;SDS011;6669;42.678;23.332;2022-07-03T00:17:02;7.28;;;6.68;;
13208;SDS011;6669;42.678;23.332;2022-07-03T00:19:32;8.15;;;6.80;;
13208;SDS011;6669;42.678;23.332;2022-07-03T00:22:02;7.53;;;6.82;;
13208;SDS011;6669;42.678;23.332;2022-07-03T00:24:32;8.90;;;6.80;;
13208;SDS011;6669;42.678;23.332;2022-07-03T00:27:06;7.07;;;6.47;;
13208;SDS011;6669;42.678;23.332;2022-07-03T00:29:37;7.65;;;6.35;;
13208;SDS011;6669;42.678;23.332;2022-07-03T00:32:06;10.00;;;7.10;;
13208;SDS011;6669;42.678;23.332;2022-07-03T00:34:39;7.55;;;6.95;;
13208;SDS011;6669;42.678;23.332;2022-07-03T00:37:09;6.75;;;6.25;;
13208;SDS011;6669;42.678;23.332;2022-07-03T00:39:38;6.80;;;6.30;;
13208;SDS011;6669;42.678;23.332;2022-07-03T00:42:08;7.43;;;6.70;;
13208;SDS011;6669;42.678;23.332;2022-07-03T00:44:43;8.05;;;6.78;;
13208;SDS011;6669;42.678;23.332;2022-07-03T00:47:13;8.75;;;7.80;;
13208;SDS011;6669;42.678;23.332;2022-07-03T00:49:45;9.75;;;8.75;;
13208;SDS011;6669;42.678;23.332;2022-07-03T00:52:15;8.25;;;7.47;;
13208;SDS011;6669;42.678;23.332;2022-07-03T00:54:45;8.70;;;7.90;;
13208;SDS011;6669;42.678;23.332;2022-07-03T00:57:20;7.65;;;6.93;;
13208;SDS011;6669;42.678;23.332;2022-07-03T00:59:49;8.68;;;7.88;;
13208;SDS011;6669;42.678;23.332;2022-07-03T01:02:21;9.45;;;8.55;;
13208;SDS011;6669;42.678;23.332;2022-07-03T01:05:02;9.75;;;8.88;;
13208;SDS011;6669;42.678;23.332;2022-07-03T01:07:37;10.23;;;9.13;;
13208;SDS011;6669;42.678;23.332;2022-07-03T01:10:16;9.65;;;8.73;;
13208;SDS011;6669;42.678;23.332;2022-07-03T01:12:54;9.65;;;8.73;;
13208;SDS011;6669;42.678;23.332;2022-07-03T01:15:36;9.32;;;8.43;;
13208;SDS011;6669;42.678;23.332;2022-07-03T01:18:13;9.85;;;8.95;;
13208;SDS011;6669;42.678;23.332;2022-07-03T01:20:54;11.00;;;8.50;;
13208;SDS011;6669;42.678;23.332;2022-07-03T01:23:30;9.13;;;8.32;;
13208;SDS011;6669;42.678;23.332;2022-07-03T01:26:09;8.88;;;8.18;;
13208;SDS011;6669;42.678;23.332;2022-07-03T01:28:40;10.05;;;7.70;;
13208;SDS011;6669;42.678;23.332;2022-07-03T01:31:13;9.60;;;8.65;;
13208;SDS011;6669;42.678;23.332;2022-07-03T01:33:46;10.63;;;9.63;;
13208;SDS011;6669;42.678;23.332;2022-07-03T01:36:18;9.00;;;8.23;;
13208;SDS011;6669;42.678;23.332;2022-07-03T01:38:51;9.27;;;8.48;;
13208;SDS011;6669;42.678;23.332;2022-07-03T01:41:22;9.35;;;8.50;;
13208;SDS011;6669;42.678;23.332;2022-07-03T01:43:55;10.52;;;9.02;;
13208;SDS011;6669;42.678;23.332;2022-07-03T01:46:26;10.80;;;9.90;;
13208;SDS011;6669;42.678;23.332;2022-07-03T01:48:56;9.85;;;8.95;;
13208;SDS011;6669;42.678;23.332;2022-07-03T01:51:25;9.63;;;8.75;;
13208;SDS011;6669;42.678;23.332;2022-07-03T01:53:54;10.43;;;9.38;;
13208;SDS011;6669;42.678;23.332;2022-07-03T01:56:26;10.90;;;9.95;;
13208;SDS011;6669;42.678;23.332;2022-07-03T01:58:56;10.07;;;9.20;;
13208;SDS011;6669;42.678;23.332;2022-07-03T02:01:29;9.82;;;8.93;;
13208;SDS011;6669;42.678;23.332;2022-07-03T02:04:02;11.35;;;10.25;;
13208;SDS011;6669;42.678;23.332;2022-07-03T02:06:35;10.80;;;9.88;;
13208;SDS011;6669;42.678;23.332;2022-07-03T02:09:11;11.65;;;10.55;;
13208;SDS011;6669;42.678;23.332;2022-07-03T02:11:52;11.15;;;10.15;;
13208;SDS011;6669;42.678;23.332;2022-07-03T02:14:23;12.88;;;11.65;;
13208;SDS011;6669;42.678;23.332;2022-07-03T02:16:54;10.65;;;9.70;;
13208;SDS011;6669;42.678;23.332;2022-07-03T02:19:30;11.00;;;10.02;;
13208;SDS011;6669;42.678;23.332;2022-07-03T02:22:09;11.50;;;10.35;;
13208;SDS011;6669;42.678;23.332;2022-07-03T02:24:42;11.13;;;10.07;;
13208;SDS011;6669;42.678;23.332;2022-07-03T02:27:14;11.13;;;10.10;;
13208;SDS011;6669;42.678;23.332;2022-07-03T02:29:46;12.52;;;10.02;;
13208;SDS011;6669;42.678;23.332;2022-07-03T02:32:19;10.50;;;9.50;;
13208;SDS011;6669;42.678;23.332;2022-07-03T02:34:52;10.45;;;9.55;;
13208;SDS011;6669;42.678;23.332;2022-07-03T02:37:45;10.18;;;9.20;;
13208;SDS011;6669;42.678;23.332;2022-07-03T02:40:22;10.55;;;9.30;;
13208;SDS011;6669;42.678;23.332;2022-07-03T02:42:58;11.20;;;10.25;;
13208;SDS011;6669;42.678;23.332;2022-07-03T02:45:40;11.27;;;10.00;;
13208;SDS011;6669;42.678;23.332;2022-07-03T02:48:19;10.60;;;9.50;;
13208;SDS011;6669;42.678;23.332;2022-07-03T02:50:57;12.00;;;10.70;;
13208;SDS011;6669;42.678;23.332;2022-07-03T02:53:30;11.75;;;10.77;;
13208;SDS011;6669;42.678;23.332;2022-07-03T02:56:07;10.77;;;9.77;;
13208;SDS011;6669;42.678;23.332;2022-07-03T02:58:49;9.98;;;9.07;;
13208;SDS011;6669;42.678;23.332;2022-07-03T03:01:24;9.90;;;8.88;;
13208;SDS011;6669;42.678;23.332;2022-07-03T03:04:07;10.23;;;9.32;;
13208;SDS011;6669;42.678;23.332;2022-07-03T03:06:37;9.90;;;9.07;;
13208;SDS011;6669;42.678;23.332;2022-07-03T03:09:11;10.55;;;9.65;;
13208;SDS011;6669;42.678;23.332;2022-07-03T03:11:47;11.05;;;10.05;;
13208;SDS011;6669;42.678;23.332;2022-07-03T03:14:19;11.70;;;10.15;;
13208;SDS011;6669;42.678;23.332;2022-07-03T03:16:50;10.52;;;9.63;;
13208;SDS011;6669;42.678;23.332;2022-07-03T03:19:19;9.80;;;8.85;;
13208;SDS011;6669;42.678;23.332;2022-07-03T03:21:54;10.18;;;9.23;;
13208;SDS011;6669;42.678;23.332;2022-07-03T03:24:25;10.63;;;9.63;;
13208;SDS011;6669;42.678;23.332;2022-07-03T03:26:57;9.95;;;9.05;;
13208;SDS011;6669;42.678;23.332;2022-07-03T03:29:27;9.45;;;8.55;;
13208;SDS011;6669;42.678;23.332;2022-07-03T03:31:55;10.80;;;9.85;;
13208;SDS011;6669;42.678;23.332;2022-07-03T03:34:29;9.85;;;9.00;;
13208;SDS011;6669;42.678;23.332;2022-07-03T03:36:58;10.30;;;9.38;;
13208;SDS011;6669;42.678;23.332;2022-07-03T03:39:27;9.82;;;8.93;;
13208;SDS011;6669;42.678;23.332;2022-07-03T03:41:55;10.80;;;9.13;;
13208;SDS011;6669;42.678;23.332;2022-07-03T03:44:24;9.75;;;8.90;;
13208;SDS011;6669;42.678;23.332;2022-07-03T03:46:53;9.82;;;8.98;;
13208;SDS011;6669;42.678;23.332;2022-07-03T03:49:22;10.35;;;8.90;;
13208;SDS011;6669;42.678;23.332;2022-07-03T03:51:50;9.93;;;8.93;;
13208;SDS011;6669;42.678;23.332;2022-07-03T03:54:18;10.07;;;9.23;;
13208;SDS011;6669;42.678;23.332;2022-07-03T03:56:47;9.85;;;8.93;;
13208;SDS011;6669;42.678;23.332;2022-07-03T03:59:15;10.68;;;9.05;;
13208;SDS011;6669;42.678;23.332;2022-07-03T04:01:43;9.30;;;8.48;;
13208;SDS011;6669;42.678;23.332;2022-07-03T04:04:13;10.05;;;9.15;;
13208;SDS011;6669;42.678;23.332;2022-07-03T04:06:44;10.77;;;9.18;;
13208;SDS011;6669;42.678;23.332;2022-07-03T04:09:12;12.88;;;9.20;;
13208;SDS011;6669;42.678;23.332;2022-07-03T04:11:40;9.43;;;8.52;;
13208;SDS011;6669;42.678;23.332;2022-07-03T04:14:08;10.02;;;9.02;;
13208;SDS011;6669;42.678;23.332;2022-07-03T04:16:36;10.30;;;9.30;;
13208;SDS011;6669;42.678;23.332;2022-07-03T04:19:04;10.75;;;9.75;;
13208;SDS011;6669;42.678;23.332;2022-07-03T04:21:33;9.93;;;9.02;;
13208;SDS011;6669;42.678;23.332;2022-07-03T04:24:02;10.02;;;8.65;;
13208;SDS011;6669;42.678;23.332;2022-07-03T04:26:30;12.50;;;11.15;;
13208;SDS011;6669;42.678;23.332;2022-07-03T04:28:58;12.30;;;9.95;;
13208;SDS011;6669;42.678;23.332;2022-07-03T04:31:26;11.20;;;8.90;;
13208;SDS011;6669;42.678;23.332;2022-07-03T04:33:54;12.18;;;9.13;;
13208;SDS011;6669;42.678;23.332;2022-07-03T04:36:22;10.30;;;9.30;;
13208;SDS011;6669;42.678;23.332;2022-07-03T04:38:52;9.90;;;9.00;;
13208;SDS011;6669;42.678;23.332;2022-07-03T04:41:20;9.85;;;9.05;;
13208;SDS011;6669;42.678;23.332;2022-07-03T04:43:48;9.70;;;8.90;;
13208;SDS011;6669;42.678;23.332;2022-07-03T04:46:16;9.18;;;8.20;;
13208;SDS011;6669;42.678;23.332;2022-07-03T04:48:44;8.98;;;8.10;;
13208;SDS011;6669;42.678;23.332;2022-07-03T04:51:12;9.80;;;8.80;;
13208;SDS011;6669;42.678;23.332;2022-07-03T04:53:40;9.20;;;8.30;;
13208;SDS011;6669;42.678;23.332;2022-07-03T04:56:10;9.68;;;8.80;;
13208;SDS011;6669;42.678;23.332;2022-07-03T04:58:38;9.02;;;8.23;;
13208;SDS011;6669;42.678;23.332;2022-07-03T05:01:06;8.65;;;7.85;;
13208;SDS011;6669;42.678;23.332;2022-07-03T05:03:34;9.68;;;8.80;;
13208;SDS011;6669;42.678;23.332;2022-07-03T05:06:02;8.57;;;7.88;;
13208;SDS011;6669;42.678;23.332;2022-07-03T05:08:30;8.68;;;7.97;;
13208;SDS011;6669;42.678;23.332;2022-07-03T05:10:58;9.00;;;8.15;;
13208;SDS011;6669;42.678;23.332;2022-07-03T05:13:28;8.63;;;7.80;;
13208;SDS011;6669;42.678;23.332;2022-07-03T05:15:56;10.75;;;8.18;;
13208;SDS011;6669;42.678;23.332;2022-07-03T05:18:25;8.88;;;8.00;;
13208;SDS011;6669;42.678;23.332;2022-07-03T05:20:53;8.70;;;7.90;;
13208;SDS011;6669;42.678;23.332;2022-07-03T05:23:21;9.10;;;8.27;;
13208;SDS011;6669;42.678;23.332;2022-07-03T05:25:49;8.45;;;7.75;;
13208;SDS011;6669;42.678;23.332;2022-07-03T05:28:17;8.57;;;7.30;;
13208;SDS011;6669;42.678;23.332;2022-07-03T05:30:46;8.00;;;7.30;;
13208;SDS011;6669;42.678;23.332;2022-07-03T05:33:14;9.75;;;7.38;;
13208;SDS011;6669;42.678;23.332;2022-07-03T05:35:42;8.65;;;7.47;;
13208;SDS011;6669;42.678;23.332;2022-07-03T05:38:11;8.30;;;7.60;;
13208;SDS011;6669;42.678;23.332;2022-07-03T05:40:39;8.10;;;7.28;;
13208;SDS011;6669;42.678;23.332;2022-07-03T05:43:06;8.35;;;7.47;;
13208;SDS011;6669;42.678;23.332;2022-07-03T05:45:34;9.40;;;7.82;;
13208;SDS011;6669;42.678;23.332;2022-07-03T05:48:05;8.70;;;7.72;;
13208;SDS011;6669;42.678;23.332;2022-07-03T05:50:33;8.63;;;7.93;;
13208;SDS011;6669;42.678;23.332;2022-07-03T05:53:01;9.75;;;8.75;;
13208;SDS011;6669;42.678;23.332;2022-07-03T05:55:29;10.02;;;9.13;;
13208;SDS011;6669;42.678;23.332;2022-07-03T05:57:57;10.10;;;9.20;;
13208;SDS011;6669;42.678;23.332;2022-07-03T06:00:25;10.93;;;9.75;;
13208;SDS011;6669;42.678;23.332;2022-07-03T06:02:55;11.77;;;10.20;;
13208;SDS011;6669;42.678;23.332;2022-07-03T06:05:24;10.73;;;9.80;;
13208;SDS011;6669;42.678;23.332;2022-07-03T06:07:53;11.02;;;10.02;;
13208;SDS011;6669;42.678;23.332;2022-07-03T06:10:21;9.80;;;8.98;;
13208;SDS011;6669;42.678;23.332;2022-07-03T06:12:51;11.82;;;9.98;;
13208;SDS011;6669;42.678;23.332;2022-07-03T06:15:19;10.10;;;9.20;;
13208;SDS011;6669;42.678;23.332;2022-07-03T06:17:47;11.70;;;9.60;;
13208;SDS011;6669;42.678;23.332;2022-07-03T06:20:15;11.63;;;9.65;;
13208;SDS011;6669;42.678;23.332;2022-07-03T06:22:45;10.35;;;9.38;;
13208;SDS011;6669;42.678;23.332;2022-07-03T06:25:13;9.95;;;8.98;;
13208;SDS011;6669;42.678;23.332;2022-07-03T06:27:43;10.73;;;8.35;;
13208;SDS011;6669;42.678;23.332;2022-07-03T06:30:11;9.88;;;8.65;;
13208;SDS011;6669;42.678;23.332;2022-07-03T06:32:42;9.68;;;8.77;;
13208;SDS011;6669;42.678;23.332;2022-07-03T06:35:10;9.05;;;8.25;;
13208;SDS011;6669;42.678;23.332;2022-07-03T06:37:38;9.30;;;8.60;;
13208;SDS011;6669;42.678;23.332;2022-07-03T06:40:09;7.93;;;7.22;;
13208;SDS011;6669;42.678;23.332;2022-07-03T06:42:39;8.45;;;7.65;;
13208;SDS011;6669;42.678;23.332;2022-07-03T06:45:08;9.73;;;8.75;;
13208;SDS011;6669;42.678;23.332;2022-07-03T06:47:36;12.65;;;8.35;;
13208;SDS011;6669;42.678;23.332;2022-07-03T06:50:05;10.68;;;8.52;;
13208;SDS011;6669;42.678;23.332;2022-07-03T06:52:34;9.63;;;8.70;;
13208;SDS011;6669;42.678;23.332;2022-07-03T06:55:02;9.48;;;8.48;;
13208;SDS011;6669;42.678;23.332;2022-07-03T06:57:33;9.60;;;8.52;;
13208;SDS011;6669;42.678;23.332;2022-07-03T07:00:01;8.95;;;8.02;;
13208;SDS011;6669;42.678;23.332;2022-07-03T07:02:29;10.63;;;8.27;;
13208;SDS011;6669;42.678;23.332;2022-07-03T07:04:57;9.68;;;8.65;;
13208;SDS011;6669;42.678;23.332;2022-07-03T07:07:25;10.02;;;9.13;;
13208;SDS011;6669;42.678;23.332;2022-07-03T07:09:53;8.77;;;7.97;;
13208;SDS011;6669;42.678;23.332;2022-07-03T07:12:21;9.70;;;7.90;;
13208;SDS011;6669;42.678;23.332;2022-07-03T07:14:50;9.18;;;8.38;;
13208;SDS011;6669;42.678;23.332;2022-07-03T07:17:18;9.35;;;8.50;;
13208;SDS011;6669;42.678;23.332;2022-07-03T07:19:46;8.75;;;7.93;;
13208;SDS011;6669;42.678;23.332;2022-07-03T07:22:14;9.25;;;8.27;;
13208;SDS011;6669;42.678;23.332;2022-07-03T07:24:43;8.07;;;7.25;;
13208;SDS011;6669;42.678;23.332;2022-07-03T07:27:11;8.88;;;8.05;;
13208;SDS011;6669;42.678;23.332;2022-07-03T07:29:39;7.55;;;6.95;;
13208;SDS011;6669;42.678;23.332;2022-07-03T07:32:09;8.00;;;7.30;;
13208;SDS011;6669;42.678;23.332;2022-07-03T07:34:37;9.05;;;7.55;;
13208;SDS011;6669;42.678;23.332;2022-07-03T07:37:05;8.43;;;7.65;;
13208;SDS011;6669;42.678;23.332;2022-07-03T07:39:33;8.43;;;7.63;;
13208;SDS011;6669;42.678;23.332;2022-07-03T07:42:01;7.63;;;7.03;;
13208;SDS011;6669;42.678;23.332;2022-07-03T07:44:29;9.82;;;7.07;;
13208;SDS011;6669;42.678;23.332;2022-07-03T07:46:57;9.45;;;7.50;;
13208;SDS011;6669;42.678;23.332;2022-07-03T07:49:27;7.80;;;7.00;;
13208;SDS011;6669;42.678;23.332;2022-07-03T07:51:55;7.82;;;7.03;;
13208;SDS011;6669;42.678;23.332;2022-07-03T07:54:23;6.90;;;6.30;;
13208;SDS011;6669;42.678;23.332;2022-07-03T07:56:51;7.28;;;6.68;;
13208;SDS011;6669;42.678;23.332;2022-07-03T07:59:20;9.48;;;7.60;;
13208;SDS011;6669;42.678;23.332;2022-07-03T08:01:51;7.55;;;6.93;;
13208;SDS011;6669;42.678;23.332;2022-07-03T08:04:38;9.15;;;6.93;;
13208;SDS011;6669;42.678;23.332;2022-07-03T08:07:23;8.80;;;7.75;;
13208;SDS011;6669;42.678;23.332;2022-07-03T08:09:51;8.10;;;7.07;;
13208;SDS011;6669;42.678;23.332;2022-07-03T08:12:20;7.78;;;6.60;;
13208;SDS011;6669;42.678;23.332;2022-07-03T08:14:50;9.32;;;6.78;;
13208;SDS011;6669;42.678;23.332;2022-07-03T08:17:19;7.15;;;6.65;;
13208;SDS011;6669;42.678;23.332;2022-07-03T08:19:49;7.07;;;6.50;;
13208;SDS011;6669;42.678;23.332;2022-07-03T08:22:18;7.93;;;6.40;;
13208;SDS011;6669;42.678;23.332;2022-07-03T08:24:47;7.20;;;6.05;;
13208;SDS011;6669;42.678;23.332;2022-07-03T08:27:17;7.40;;;6.80;;
13208;SDS011;6669;42.678;23.332;2022-07-03T08:29:47;7.72;;;6.15;;
13208;SDS011;6669;42.678;23.332;2022-07-03T08:32:17;6.63;;;6.00;;
13208;SDS011;6669;42.678;23.332;2022-07-03T08:34:45;6.35;;;5.85;;
13208;SDS011;6669;42.678;23.332;2022-07-03T08:37:15;6.70;;;6.20;;
13208;SDS011;6669;42.678;23.332;2022-07-03T08:39:45;8.55;;;5.78;;
13208;SDS011;6669;42.678;23.332;2022-07-03T08:42:14;6.70;;;6.10;;
13208;SDS011;6669;42.678;23.332;2022-07-03T08:44:44;7.50;;;6.85;;
13208;SDS011;6669;42.678;23.332;2022-07-03T08:47:13;7.00;;;6.20;;
13208;SDS011;6669;42.678;23.332;2022-07-03T08:49:44;6.75;;;6.25;;
13208;SDS011;6669;42.678;23.332;2022-07-03T08:52:21;6.35;;;5.78;;
13208;SDS011;6669;42.678;23.332;2022-07-03T08:54:50;6.40;;;5.35;;
13208;SDS011;6669;42.678;23.332;2022-07-03T08:57:18;5.65;;;5.15;;
13208;SDS011;6669;42.678;23.332;2022-07-03T08:59:49;6.10;;;5.47;;
13208;SDS011;6669;42.678;23.332;2022-07-03T09:02:20;6.03;;;5.50;;
13208;SDS011;6669;42.678;23.332;2022-07-03T09:04:50;7.57;;;5.18;;
13208;SDS011;6669;42.678;23.332;2022-07-03T09:07:18;5.38;;;4.60;;
13208;SDS011;6669;42.678;23.332;2022-07-03T09:09:49;5.82;;;4.95;;
13208;SDS011;6669;42.678;23.332;2022-07-03T09:12:19;6.25;;;4.95;;
13208;SDS011;6669;42.678;23.332;2022-07-03T09:14:48;5.45;;;4.63;;
13208;SDS011;6669;42.678;23.332;2022-07-03T09:17:16;6.30;;;4.45;;
13208;SDS011;6669;42.678;23.332;2022-07-03T09:19:45;4.60;;;4.20;;
13208;SDS011;6669;42.678;23.332;2022-07-03T09:22:21;5.18;;;4.00;;
13208;SDS011;6669;42.678;23.332;2022-07-03T09:24:53;5.95;;;4.60;;
13208;SDS011;6669;42.678;23.332;2022-07-03T09:27:22;5.00;;;4.25;;
13208;SDS011;6669;42.678;23.332;2022-07-03T09:29:58;4.60;;;4.20;;
13208;SDS011;6669;42.678;23.332;2022-07-03T09:32:30;4.82;;;4.20;;
13208;SDS011;6669;42.678;23.332;2022-07-03T09:35:09;5.53;;;4.63;;
13208;SDS011;6669;42.678;23.332;2022-07-03T09:37:41;4.38;;;4.07;;
13208;SDS011;6669;42.678;23.332;2022-07-03T09:40:17;5.30;;;4.25;;
13208;SDS011;6669;42.678;23.332;2022-07-03T09:42:58;5.07;;;4.43;;
13208;SDS011;6669;42.678;23.332;2022-07-03T09:45:28;5.32;;;4.88;;
13208;SDS011;6669;42.678;23.332;2022-07-03T09:48:23;4.68;;;4.28;;
13208;SDS011;6669;42.678;23.332;2022-07-03T09:51:11;5.05;;;4.65;;
13208;SDS011;6669;42.678;23.332;2022-07-03T09:53:54;4.80;;;4.07;;
13208;SDS011;6669;42.678;23.332;2022-07-03T09:56:26;4.60;;;4.30;;
13208;SDS011;6669;42.678;23.332;2022-07-03T09:58:59;7.00;;;4.28;;
13208;SDS011;6669;42.678;23.332;2022-07-03T10:01:37;5.63;;;4.28;;
13208;SDS011;6669;42.678;23.332;2022-07-03T10:04:10;5.22;;;4.55;;
13208;SDS011;6669;42.678;23.332;2022-07-03T10:06:50;5.80;;;4.43;;
13208;SDS011;6669;42.678;23.332;2022-07-03T10:09:22;4.50;;;4.10;;
13208;SDS011;6669;42.678;23.332;2022-07-03T10:11:53;5.13;;;4.05;;
13208;SDS011;6669;42.678;23.332;2022-07-03T10:14:23;8.57;;;4.50;;
13208;SDS011;6669;42.678;23.332;2022-07-03T10:16:52;4.03;;;3.63;;
13208;SDS011;6669;42.678;23.332;2022-07-03T10:19:26;4.65;;;4.20;;
13208;SDS011;6669;42.678;23.332;2022-07-03T10:21:56;6.75;;;3.63;;
13208;SDS011;6669;42.678;23.332;2022-07-03T10:24:26;5.10;;;4.00;;
13208;SDS011;6669;42.678;23.332;2022-07-03T10:26:57;4.63;;;3.45;;
13208;SDS011;6669;42.678;23.332;2022-07-03T10:29:27;3.70;;;3.40;;
13208;SDS011;6669;42.678;23.332;2022-07-03T10:31:56;3.75;;;3.40;;
13208;SDS011;6669;42.678;23.332;2022-07-03T10:34:25;5.60;;;3.60;;
13208;SDS011;6669;42.678;23.332;2022-07-03T10:36:56;3.90;;;3.25;;
13208;SDS011;6669;42.678;23.332;2022-07-03T10:39:38;3.72;;;2.92;;
13208;SDS011;6669;42.678;23.332;2022-07-03T10:42:16;3.85;;;3.15;;
13208;SDS011;6669;42.678;23.332;2022-07-03T10:45:10;2.88;;;2.67;;
13208;SDS011;6669;42.678;23.332;2022-07-03T10:47:39;3.65;;;3.20;;
13208;SDS011;6669;42.678;23.332;2022-07-03T10:50:10;4.15;;;3.08;;
13208;SDS011;6669;42.678;23.332;2022-07-03T10:52:40;4.00;;;3.30;;
13208;SDS011;6669;42.678;23.332;2022-07-03T10:55:09;4.20;;;3.38;;
13208;SDS011;6669;42.678;23.332;2022-07-03T10:57:40;4.00;;;3.40;;
13208;SDS011;6669;42.678;23.332;2022-07-03T11:00:13;3.28;;;3.08;;
13208;SDS011;6669;42.678;23.332;2022-07-03T11:02:44;3.80;;;3.40;;
13208;SDS011;6669;42.678;23.332;2022-07-03T11:05:17;3.30;;;3.10;;
13208;SDS011;6669;42.678;23.332;2022-07-03T11:08:06;4.10;;;2.90;;
13208;SDS011;6669;42.678;23.332;2022-07-03T11:10:41;6.45;;;3.30;;
13208;SDS011;6669;42.678;23.332;2022-07-03T11:13:16;4.28;;;3.35;;
13208;SDS011;6669;42.678;23.332;2022-07-03T11:15:49;3.45;;;3.15;;
13208;SDS011;6669;42.678;23.332;2022-07-03T11:18:19;4.43;;;3.33;;
13208;SDS011;6669;42.678;23.332;2022-07-03T11:30:03;3.92;;;3.20;;
13208;SDS011;6669;42.678;23.332;2022-07-03T11:32:51;3.92;;;3.47;;
13208;SDS011;6669;42.678;23.332;2022-07-03T11:35:42;2.90;;;2.60;;
13208;SDS011;6669;42.678;23.332;2022-07-03T11:38:15;3.25;;;2.90;;
13208;SDS011;6669;42.678;23.332;2022-07-03T11:40:45;3.63;;;3.08;;
13208;SDS011;6669;42.678;23.332;2022-07-03T11:43:15;3.28;;;2.80;;
13208;SDS011;6669;42.678;23.332;2022-07-03T11:45:48;3.55;;;2.90;;
13208;SDS011;6669;42.678;23.332;2022-07-03T11:48:17;3.42;;;3.00;;
13208;SDS011;6669;42.678;23.332;2022-07-03T11:50:46;3.10;;;2.90;;
13208;SDS011;6669;42.678;23.332;2022-07-03T11:53:19;3.45;;;2.88;;
13208;SDS011;6669;42.678;23.332;2022-07-03T11:55:53;3.55;;;2.95;;
13208;SDS011;6669;42.678;23.332;2022-07-03T11:58:23;3.72;;;2.95;;
13208;SDS011;6669;42.678;23.332;2022-07-03T12:00:54;3.30;;;2.95;;
13208;SDS011;6669;42.678;23.332;2022-07-03T12:03:23;8.30;;;3.10;;
13208;SDS011;6669;42.678;23.332;2022-07-03T12:05:56;3.83;;;3.30;;
13208;SDS011;6669;42.678;23.332;2022-07-03T12:08:27;4.22;;;3.30;;
13208;SDS011;6669;42.678;23.332;2022-07-03T12:10:57;3.22;;;2.92;;
13208;SDS011;6669;42.678;23.332;2022-07-03T12:13:27;3.33;;;3.00;;
13208;SDS011;6669;42.678;23.332;2022-07-03T12:16:05;4.28;;;2.97;;
13208;SDS011;6669;42.678;23.332;2022-07-03T12:18:44;2.80;;;2.60;;
13208;SDS011;6669;42.678;23.332;2022-07-03T12:21:20;3.58;;;3.38;;
13208;SDS011;6669;42.678;23.332;2022-07-03T12:23:50;4.03;;;3.40;;
13208;SDS011;6669;42.678;23.332;2022-07-03T12:26:28;3.35;;;3.00;;
13208;SDS011;6669;42.678;23.332;2022-07-03T12:28:57;3.95;;;3.00;;
13208;SDS011;6669;42.678;23.332;2022-07-03T12:31:27;3.78;;;3.05;;
13208;SDS011;6669;42.678;23.332;2022-07-03T12:33:57;3.33;;;3.03;;
13208;SDS011;6669;42.678;23.332;2022-07-03T12:36:26;5.65;;;3.22;;
13208;SDS011;6669;42.678;23.332;2022-07-03T12:38:55;3.30;;;3.00;;
13208;SDS011;6669;42.678;23.332;2022-07-03T12:41:25;3.33;;;3.13;;
13208;SDS011;6669;42.678;23.332;2022-07-03T12:43:54;3.35;;;2.97;;
13208;SDS011;6669;42.678;23.332;2022-07-03T12:46:24;3.42;;;2.88;;
13208;SDS011;6669;42.678;23.332;2022-07-03T12:48:56;3.60;;;2.97;;
13208;SDS011;6669;42.678;23.332;2022-07-03T12:51:41;5.53;;;3.50;;
13208;SDS011;6669;42.678;23.332;2022-07-03T12:54:12;5.40;;;4.28;;
13208;SDS011;6669;42.678;23.332;2022-07-03T12:56:41;7.07;;;3.85;;
13208;SDS011;6669;42.678;23.332;2022-07-03T12:59:26;4.10;;;3.70;;
13208;SDS011;6669;42.678;23.332;2022-07-03T13:02:01;5.82;;;3.80;;
13208;SDS011;6669;42.678;23.332;2022-07-03T13:04:32;3.88;;;3.58;;
13208;SDS011;6669;42.678;23.332;2022-07-03T13:07:02;4.05;;;3.65;;
13208;SDS011;6669;42.678;23.332;2022-07-03T13:09:32;5.00;;;3.60;;
13208;SDS011;6669;42.678;23.332;2022-07-03T13:12:00;5.47;;;3.10;;
13208;SDS011;6669;42.678;23.332;2022-07-03T13:14:29;3.53;;;3.20;;
13208;SDS011;6669;42.678;23.332;2022-07-03T13:16:57;3.30;;;3.10;;
13208;SDS011;6669;42.678;23.332;2022-07-03T13:19:27;4.22;;;3.55;;
13208;SDS011;6669;42.678;23.332;2022-07-03T13:21:57;3.95;;;3.28;;
13208;SDS011;6669;42.678;23.332;2022-07-03T13:24:25;3.60;;;3.28;;
13208;SDS011;6669;42.678;23.332;2022-07-03T13:26:54;6.45;;;3.80;;
13208;SDS011;6669;42.678;23.332;2022-07-03T13:29:23;4.40;;;3.45;;
13208;SDS011;6669;42.678;23.332;2022-07-03T13:31:51;5.47;;;4.57;;
13208;SDS011;6669;42.678;23.332;2022-07-03T13:34:20;4.22;;;3.75;;
13208;SDS011;6669;42.678;23.332;2022-07-03T13:36:48;4.43;;;4.13;;
13208;SDS011;6669;42.678;23.332;2022-07-03T13:39:19;4.95;;;4.05;;
13208;SDS011;6669;42.678;23.332;2022-07-03T13:41:48;4.85;;;3.90;;
13208;SDS011;6669;42.678;23.332;2022-07-03T13:44:16;5.20;;;4.65;;
13208;SDS011;6669;42.678;23.332;2022-07-03T13:46:45;4.15;;;3.78;;
13208;SDS011;6669;42.678;23.332;2022-07-03T13:49:17;5.93;;;4.20;;
13208;SDS011;6669;42.678;23.332;2022-07-03T13:51:46;5.22;;;3.65;;
13208;SDS011;6669;42.678;23.332;2022-07-03T13:54:14;3.90;;;3.58;;
13208;SDS011;6669;42.678;23.332;2022-07-03T13:56:43;5.38;;;3.63;;
13208;SDS011;6669;42.678;23.332;2022-07-03T13:59:12;7.03;;;3.70;;
13208;SDS011;6669;42.678;23.332;2022-07-03T14:01:40;3.70;;;3.40;;
13208;SDS011;6669;42.678;23.332;2022-07-03T14:04:16;3.75;;;3.45;;
13208;SDS011;6669;42.678;23.332;2022-07-03T14:06:44;3.90;;;3.60;;
13208;SDS011;6669;42.678;23.332;2022-07-03T14:09:12;4.30;;;3.95;;
13208;SDS011;6669;42.678;23.332;2022-07-03T14:11:41;3.95;;;3.50;;
13208;SDS011;6669;42.678;23.332;2022-07-03T14:14:10;4.53;;;4.00;;
13208;SDS011;6669;42.678;23.332;2022-07-03T14:16:38;4.80;;;4.05;;
13208;SDS011;6669;42.678;23.332;2022-07-03T14:19:07;6.00;;;4.10;;
13208;SDS011;6669;42.678;23.332;2022-07-03T14:21:35;4.13;;;3.83;;
13208;SDS011;6669;42.678;23.332;2022-07-03T14:24:03;4.57;;;4.18;;
13208;SDS011;6669;42.678;23.332;2022-07-03T14:26:32;4.25;;;3.85;;
13208;SDS011;6669;42.678;23.332;2022-07-03T14:29:19;4.63;;;3.60;;
13208;SDS011;6669;42.678;23.332;2022-07-03T14:32:05;6.38;;;4.97;;
13208;SDS011;6669;42.678;23.332;2022-07-03T14:34:51;6.57;;;3.70;;
13208;SDS011;6669;42.678;23.332;2022-07-03T14:37:19;5.03;;;4.20;;
13208;SDS011;6669;42.678;23.332;2022-07-03T14:39:48;5.22;;;3.70;;
13208;SDS011;6669;42.678;23.332;2022-07-03T14:42:17;5.78;;;4.10;;
13208;SDS011;6669;42.678;23.332;2022-07-03T14:44:47;3.88;;;3.58;;
13208;SDS011;6669;42.678;23.332;2022-07-03T14:47:15;5.43;;;3.70;;
13208;SDS011;6669;42.678;23.332;2022-07-03T14:49:44;4.05;;;3.75;;
13208;SDS011;6669;42.678;23.332;2022-07-03T14:52:12;4.95;;;4.30;;
13208;SDS011;6669;42.678;23.332;2022-07-03T14:54:40;5.20;;;4.15;;
13208;SDS011;6669;42.678;23.332;2022-07-03T14:57:14;6.13;;;4.45;;
13208;SDS011;6669;42.678;23.332;2022-07-03T14:59:57;4.05;;;3.72;;
13208;SDS011;6669;42.678;23.332;2022-07-03T15:02:32;6.80;;;4.80;;
13208;SDS011;6669;42.678;23.332;2022-07-03T15:05:06;4.55;;;4.05;;
13208;SDS011;6669;42.678;23.332;2022-07-03T15:07:37;6.75;;;4.60;;
13208;SDS011;6669;42.678;23.332;2022-07-03T15:10:10;4.30;;;3.90;;
13208;SDS011;6669;42.678;23.332;2022-07-03T15:12:42;5.07;;;4.18;;
13208;SDS011;6669;42.678;23.332;2022-07-03T15:15:15;4.20;;;3.70;;
13208;SDS011;6669;42.678;23.332;2022-07-03T15:17:45;4.13;;;3.80;;